Time;durP1;ratioP1;P1;durP2;ratioP2;P2;SDS_P1;SDS_P2;PMS_P1;PMS_P2;Temp;Humidity;BMP_temperature;BMP_pressure;BME280_temperature;BME280_humidity;BME280_pressure;Samples;Min_cycle;Max_cycle;Signal;HPM_P1;HPM_P2
2021/04/28 00:02:09;;;;;;;5.07;2.85;;;10.00;66.90;;;;;;5012568;28;20037;-67
2021/04/28 00:04:35;;;;;;;14.05;3.15;;;10.00;67.50;;;;;;5011219;28;20029;-67
2021/04/28 00:07:03;;;;;;;9.48;2.72;;;10.00;68.00;;;;;;5027545;28;20475;-67
2021/04/28 00:09:30;;;;;;;9.80;2.75;;;9.90;68.90;;;;;;5012818;28;20026;-67
2021/04/28 00:11:58;;;;;;;8.02;2.83;;;9.90;69.80;;;;;;5012184;28;20041;-67
2021/04/28 00:14:24;;;;;;;6.38;3.10;;;9.80;70.70;;;;;;5012371;28;20117;-67
2021/04/28 00:16:50;;;;;;;7.93;3.53;;;9.90;71.20;;;;;;5012363;28;20471;-66
2021/04/28 00:19:16;;;;;;;7.40;3.30;;;9.80;72.40;;;;;;5012691;28;20072;-67
2021/04/28 00:21:43;;;;;;;9.45;3.35;;;9.70;73.30;;;;;;5027464;28;20065;-67
2021/04/28 00:24:12;;;;;;;7.43;3.58;;;9.60;74.30;;;;;;5012328;28;20478;-67
2021/04/28 00:26:38;;;;;;;9.18;2.63;;;9.60;75.30;;;;;;5012579;28;20084;-66
2021/04/28 00:29:05;;;;;;;12.02;3.05;;;9.50;76.20;;;;;;5012200;28;20070;-67
2021/04/28 00:31:31;;;;;;;6.88;3.15;;;9.40;77.20;;;;;;5027552;28;20078;-68
2021/04/28 00:33:57;;;;;;;6.85;3.17;;;9.40;78.40;;;;;;5012193;28;20069;-67
2021/04/28 00:36:23;;;;;;;6.95;3.25;;;9.40;79.30;;;;;;5012455;28;20025;-68
2021/04/28 00:38:50;;;;;;;4.93;2.58;;;9.30;80.50;;;;;;5027197;28;20585;-67
2021/04/28 00:41:17;;;;;;;4.72;2.45;;;9.20;81.40;;;;;;5027381;28;20030;-68
2021/04/28 00:43:43;;;;;;;5.80;2.55;;;9.10;82.60;;;;;;5012449;28;20103;-68
2021/04/28 00:46:08;;;;;;;9.55;3.25;;;9.10;84.10;;;;;;5027121;28;20036;-68
2021/04/28 00:48:35;;;;;;;5.40;2.78;;;9.00;85.40;;;;;;5010981;28;20117;-68
2021/04/28 00:51:02;;;;;;;4.88;2.65;;;9.00;85.40;;;;;;5027497;28;20038;-68
2021/04/28 00:53:29;;;;;;;5.53;2.55;;;9.00;86.60;;;;;;5027326;28;20034;-68
2021/04/28 00:55:57;;;;;;;7.38;3.00;;;9.00;87.40;;;;;;5011837;28;20033;-68
2021/04/28 00:58:25;;;;;;;5.75;2.42;;;8.90;88.60;;;;;;5011870;28;20069;-68
2021/04/28 01:00:52;;;;;;;5.50;2.83;;;8.90;90.00;;;;;;5012103;28;20382;-68
2021/04/28 01:03:27;;;;;;;7.43;3.13;;;8.90;89.90;;;;;;5012237;28;20034;-67
2021/04/28 01:05:59;;;;;;;7.18;2.63;;;8.80;90.50;;;;;;5011971;28;20037;-67
2021/04/28 01:08:26;;;;;;;4.90;2.53;;;8.80;90.80;;;;;;5027248;28;20033;-68
2021/04/28 01:10:53;;;;;;;4.70;2.58;;;8.70;91.20;;;;;;5027273;28;20490;-67
2021/04/28 01:13:20;;;;;;;6.07;3.20;;;8.70;91.60;;;;;;5026958;28;20049;-68
2021/04/28 01:15:47;;;;;;;5.88;2.35;;;8.60;92.00;;;;;;5012172;28;20047;-67
2021/04/28 01:18:15;;;;;;;8.13;2.78;;;8.70;92.30;;;;;;5012063;28;20029;-67
2021/04/28 01:20:42;;;;;;;9.02;2.90;;;8.70;92.40;;;;;;5011903;28;20488;-68
2021/04/28 01:23:10;;;;;;;6.65;2.90;;;8.60;92.60;;;;;;5012231;28;20073;-67
2021/04/28 01:25:37;;;;;;;7.45;2.95;;;8.60;92.80;;;;;;5015594;28;20037;-68
2021/04/28 01:28:10;;;;;;;8.30;2.85;;;8.60;93.10;;;;;;5030450;28;20025;-68
2021/04/28 01:31:07;;;;;;;10.48;2.70;;;8.60;93.50;;;;;;5015546;28;20040;-68
2021/04/28 01:33:39;;;;;;;4.97;2.33;;;8.60;93.70;;;;;;5030206;28;20038;-68
2021/04/28 01:36:16;;;;;;;7.38;2.97;;;8.50;94.00;;;;;;5015241;28;20049;-68
2021/04/28 01:38:45;;;;;;;8.38;3.05;;;8.40;94.20;;;;;;5029835;28;20026;-69
2021/04/28 01:41:11;;;;;;;9.27;3.53;;;8.40;94.50;;;;;;5030255;28;20501;-68
2021/04/28 01:43:40;;;;;;;5.10;2.80;;;8.30;94.90;;;;;;5030332;28;20034;-68
2021/04/28 01:46:06;;;;;;;8.95;3.65;;;8.30;95.30;;;;;;5029835;28;20029;-68
2021/04/28 01:48:33;;;;;;;8.70;2.88;;;8.30;95.20;;;;;;5030034;28;20040;-68
2021/04/28 01:50:59;;;;;;;6.53;2.72;;;8.40;95.20;;;;;;5014649;28;20034;-67
2021/04/28 01:53:25;;;;;;;5.45;2.50;;;8.30;95.40;;;;;;5030162;28;20033;-68
2021/04/28 01:55:55;;;;;;;10.80;2.70;;;8.30;95.60;;;;;;5030007;28;20044;-68
2021/04/28 01:58:27;;;;;;;5.57;2.83;;;8.20;95.60;;;;;;5029766;28;20092;-67
2021/04/28 02:00:54;;;;;;;7.85;2.97;;;8.20;95.90;;;;;;5029710;28;20483;-68
2021/04/28 02:03:25;;;;;;;10.00;3.22;;;8.10;96.40;;;;;;5029780;28;20030;-67
2021/04/28 02:05:52;;;;;;;6.38;2.90;;;8.00;96.60;;;;;;5014746;28;20084;-67
2021/04/28 02:08:19;;;;;;;8.07;3.00;;;8.10;96.60;;;;;;5014590;28;20026;-68
2021/04/28 02:10:46;;;;;;;7.07;3.17;;;8.00;96.80;;;;;;5014671;28;20029;-67
2021/04/28 02:13:18;;;;;;;6.68;3.22;;;8.00;96.80;;;;;;5029640;28;20061;-68
2021/04/28 02:15:45;;;;;;;7.63;2.92;;;8.00;96.90;;;;;;5029463;28;20061;-67
2021/04/28 02:18:13;;;;;;;7.60;3.00;;;8.00;97.10;;;;;;5014327;28;20491;-67
2021/04/28 02:20:40;;;;;;;4.78;2.80;;;7.90;97.30;;;;;;5029448;28;20045;-67
2021/04/28 02:23:06;;;;;;;7.65;2.63;;;7.90;97.50;;;;;;5009663;28;20034;-67
2021/04/28 02:25:33;;;;;;;11.63;3.22;;;7.90;97.70;;;;;;5009961;28;20387;-67
2021/04/28 02:28:00;;;;;;;7.28;2.80;;;7.80;97.90;;;;;;5009265;28;20030;-66
2021/04/28 02:30:31;;;;;;;6.13;3.08;;;7.80;98.00;;;;;;5009792;28;20030;-66
2021/04/28 02:32:57;;;;;;;;;;;7.80;98.30;;;;;;4995024;28;20414;-66
2021/04/28 02:35:25;;;;;;;6.88;3.10;;;7.80;98.40;;;;;;5008547;28;20012;-67
2021/04/28 02:38:20;;;;;;;4.78;2.88;;;7.70;98.70;;;;;;4994551;28;20475;-67
2021/04/28 02:40:47;;;;;;;6.88;3.00;;;7.70;99.00;;;;;;5009150;28;20026;-67
2021/04/28 02:43:14;;;;;;;6.07;2.92;;;7.70;99.10;;;;;;5009251;28;20089;-67
2021/04/28 02:45:46;;;;;;;6.18;2.90;;;7.60;99.20;;;;;;5009265;28;20067;-67
2021/04/28 02:48:13;;;;;;;8.85;3.55;;;7.60;99.30;;;;;;5008828;28;20034;-67
2021/04/28 02:50:40;;;;;;;10.20;4.45;;;7.50;99.40;;;;;;5009445;28;20041;-68
2021/04/28 02:53:09;;;;;;;9.55;3.30;;;7.50;99.50;;;;;;5008941;28;20061;-67
2021/04/28 02:55:35;;;;;;;5.32;3.00;;;7.50;99.60;;;;;;5009154;28;20592;-67
2021/04/28 02:58:03;;;;;;;5.45;3.65;;;7.50;99.60;;;;;;5008833;28;20062;-67
2021/04/28 03:00:29;;;;;;;8.32;3.20;;;7.40;99.80;;;;;;5009229;28;20030;-67
2021/04/28 03:02:57;;;;;;;6.60;3.42;;;7.40;99.80;;;;;;5009051;28;20035;-67
2021/04/28 03:05:25;;;;;;;5.28;2.92;;;7.30;99.90;;;;;;4993726;28;20030;-67
2021/04/28 03:07:53;;;;;;;9.82;3.33;;;7.30;99.90;;;;;;5009073;28;20034;-67
2021/04/28 03:10:20;;;;;;;8.55;4.07;;;7.30;99.90;;;;;;4993881;28;20026;-67
2021/04/28 03:12:46;;;;;;;9.95;3.90;;;7.30;99.90;;;;;;4993688;28;20048;-67
2021/04/28 03:15:19;;;;;;;12.15;4.05;;;7.40;99.90;;;;;;5008622;28;20034;-67
2021/04/28 03:17:47;;;;;;;9.07;4.80;;;7.40;99.90;;;;;;4993636;28;20030;-67
2021/04/28 03:20:15;;;;;;;6.22;3.10;;;7.30;99.90;;;;;;5008815;28;20030;-67
2021/04/28 03:22:42;;;;;;;10.45;3.75;;;7.30;99.90;;;;;;5010028;28;20077;-67
2021/04/28 03:25:09;;;;;;;9.18;4.07;;;7.20;99.90;;;;;;5028170;28;20034;-66
2021/04/28 03:27:35;;;;;;;10.85;3.78;;;7.20;99.90;;;;;;5028170;28;20099;-67
2021/04/28 03:30:01;;;;;;;8.52;3.55;;;7.20;99.90;;;;;;5028274;28;20026;-66
2021/04/28 03:32:27;;;;;;;7.22;3.65;;;7.20;99.90;;;;;;5013003;28;20398;-68
2021/04/28 03:34:53;;;;;;;10.48;3.97;;;7.20;99.90;;;;;;5013090;28;20026;-66
2021/04/28 03:37:19;;;;;;;9.50;4.55;;;7.10;99.90;;;;;;5012675;28;20030;-67
2021/04/28 03:39:44;;;;;;;9.70;3.28;;;7.10;99.90;;;;;;5012856;28;20498;-68
2021/04/28 03:42:11;;;;;;;6.68;3.58;;;7.10;99.90;;;;;;5012921;28;20052;-67
2021/04/28 03:44:36;;;;;;;13.38;4.43;;;7.20;99.90;;;;;;4982234;28;20055;-67
2021/04/28 03:47:05;;;;;;;6.65;3.47;;;7.10;99.90;;;;;;4995333;28;20037;-68
2021/04/28 03:49:30;;;;;;;8.18;3.92;;;7.20;99.90;;;;;;5012190;28;20390;-63
2021/04/28 03:51:56;;;;;;;7.32;3.80;;;7.20;99.90;;;;;;5032507;28;20026;-71
2021/04/28 03:54:22;;;;;;;9.82;3.42;;;7.20;99.90;;;;;;5014999;28;20049;-71
2021/04/28 03:56:48;;;;;;;11.20;3.85;;;7.20;99.90;;;;;;5012210;28;20080;-72
2021/04/28 03:59:14;;;;;;;7.15;3.78;;;7.10;99.90;;;;;;5032410;28;20053;-69
2021/04/28 04:01:41;;;;;;;8.40;4.78;;;7.10;99.90;;;;;;5047923;28;20033;-69
2021/04/28 04:04:07;;;;;;;10.95;4.22;;;7.10;99.90;;;;;;5031248;28;20033;-69
2021/04/28 04:06:33;;;;;;;8.05;4.03;;;7.10;99.90;;;;;;5032575;28;20545;-69
2021/04/28 04:08:59;;;;;;;7.18;4.00;;;7.00;99.90;;;;;;5047245;28;20034;-69
2021/04/28 04:11:26;;;;;;;10.57;4.72;;;7.00;99.90;;;;;;5032208;28;20120;-69
2021/04/28 04:13:52;;;;;;;13.10;4.65;;;7.10;99.90;;;;;;5032269;28;20117;-67
2021/04/28 04:16:21;;;;;;;9.70;4.38;;;7.10;99.90;;;;;;5030958;28;20108;-69
2021/04/28 04:18:47;;;;;;;8.60;4.15;;;7.00;99.90;;;;;;5047071;28;20033;-69
2021/04/28 04:21:12;;;;;;;9.23;4.50;;;7.10;99.90;;;;;;5032001;28;20105;-68
2021/04/28 04:23:38;;;;;;;10.13;5.05;;;7.10;99.90;;;;;;5032528;28;20034;-69
2021/04/28 04:26:04;;;;;;;10.95;4.90;;;7.20;99.90;;;;;;5047375;28;20121;-69
2021/04/28 04:28:30;;;;;;;9.55;4.43;;;7.20;99.90;;;;;;5031102;28;20057;-70
2021/04/28 04:30:56;;;;;;;11.32;4.57;;;7.10;99.90;;;;;;5032232;28;20108;-70
2021/04/28 04:33:24;;;;;;;9.10;4.50;;;7.20;99.90;;;;;;5030568;28;20034;-70
2021/04/28 04:35:50;;;;;;;11.02;4.25;;;7.20;99.90;;;;;;5032184;28;20026;-71
2021/04/28 04:38:16;;;;;;;7.80;4.50;;;7.20;99.90;;;;;;5031959;28;20084;-69
2021/04/28 04:40:43;;;;;;;7.28;4.07;;;7.20;99.90;;;;;;5032154;28;20034;-70
2021/04/28 04:43:09;;;;;;;8.77;4.30;;;7.20;99.90;;;;;;5032093;28;20037;-70
2021/04/28 04:45:41;;;;;;;8.43;4.30;;;7.30;99.90;;;;;;5030439;28;20038;-72
2021/04/28 04:48:08;;;;;;;9.77;4.53;;;7.30;99.90;;;;;;5032030;28;20083;-72
2021/04/28 04:50:35;;;;;;;12.15;4.50;;;7.20;99.90;;;;;;5032102;28;20034;-70
2021/04/28 04:53:03;;;;;;;7.93;4.45;;;7.20;99.90;;;;;;5031949;28;20528;-72
2021/04/28 04:55:29;;;;;;;9.20;4.25;;;7.20;99.90;;;;;;5013863;28;20029;-72
2021/04/28 04:57:55;;;;;;;9.95;4.35;;;7.20;99.90;;;;;;5032346;28;20088;-72
2021/04/28 05:00:22;;;;;;;11.65;4.65;;;7.30;99.90;;;;;;5035817;28;20450;-72
2021/04/28 05:02:50;;;;;;;9.20;4.45;;;7.30;99.90;;;;;;5035791;28;20034;-71
2021/04/28 05:05:19;;;;;;;9.70;5.32;;;7.40;99.90;;;;;;5035225;28;20040;-71
2021/04/28 05:07:44;;;;;;;10.65;4.25;;;7.50;99.90;;;;;;5035464;28;20181;-71
2021/04/28 05:10:13;;;;;;;9.82;4.65;;;7.40;99.90;;;;;;5035303;28;20056;-72
2021/04/28 05:12:41;;;;;;;13.50;4.43;;;7.50;99.90;;;;;;5035501;28;20034;-72
2021/04/28 05:15:08;;;;;;;9.15;4.45;;;7.50;99.90;;;;;;5050585;28;20036;-67
2021/04/28 05:17:34;;;;;;;8.77;4.68;;;7.50;99.90;;;;;;5035108;28;20133;-69
2021/04/28 05:20:00;;;;;;;9.82;4.63;;;7.60;99.90;;;;;;5035337;28;20113;-70
2021/04/28 05:22:27;;;;;;;10.52;4.40;;;7.60;99.90;;;;;;5034759;28;20513;-69
2021/04/28 05:24:54;;;;;;;10.77;4.63;;;7.70;99.90;;;;;;5049681;28;20161;-68
2021/04/28 05:27:25;;;;;;;8.38;4.47;;;7.60;99.90;;;;;;5033283;28;20124;-69
2021/04/28 05:29:52;;;;;;;11.57;4.20;;;7.70;99.90;;;;;;5047974;28;20029;-68
2021/04/28 05:32:18;;;;;;;9.63;4.53;;;7.80;99.90;;;;;;5033781;28;20033;-67
2021/04/28 05:34:43;;;;;;;12.10;5.60;;;7.80;99.90;;;;;;5049283;28;20045;-67
2021/04/28 05:37:12;;;;;;;12.13;4.95;;;7.90;99.90;;;;;;5034245;28;20065;-68
2021/04/28 05:39:40;;;;;;;10.10;4.47;;;8.10;99.90;;;;;;5016299;28;20037;-67
2021/04/28 05:42:07;;;;;;;10.70;4.38;;;8.20;99.90;;;;;;5049976;28;20029;-68
2021/04/28 05:44:34;;;;;;;9.45;4.28;;;8.20;99.90;;;;;;5034953;28;20033;-68
2021/04/28 05:47:00;;;;;;;11.75;4.65;;;8.30;99.90;;;;;;5032154;28;20104;-68
2021/04/28 05:49:26;;;;;;;9.77;4.80;;;8.30;99.90;;;;;;5014395;28;20026;-68
2021/04/28 05:51:52;;;;;;;8.60;4.45;;;8.30;99.90;;;;;;5021849;28;20395;-68
2021/04/28 05:54:18;;;;;;;10.43;4.57;;;8.40;99.90;;;;;;5002272;28;20025;-68
2021/04/28 05:56:44;;;;;;;9.98;4.90;;;8.50;99.90;;;;;;4996787;28;20038;-68
2021/04/28 05:59:10;;;;;;;6.88;4.55;;;8.60;99.90;;;;;;5014784;28;20036;-68
2021/04/28 06:01:36;;;;;;;8.07;4.50;;;8.70;99.90;;;;;;5014428;28;20026;-68
2021/04/28 06:04:02;;;;;;;13.35;4.88;;;8.80;99.70;;;;;;5029968;28;20513;-68
2021/04/28 06:06:28;;;;;;;8.77;4.63;;;8.80;99.70;;;;;;5014524;28;20053;-68
2021/04/28 06:08:54;;;;;;;10.82;4.90;;;8.80;99.80;;;;;;5014333;28;20034;-68
2021/04/28 06:11:20;;;;;;;13.43;4.18;;;8.90;99.50;;;;;;5014136;28;20033;-69
2021/04/28 06:13:47;;;;;;;12.32;4.47;;;8.90;99.40;;;;;;5014537;28;20129;-69
2021/04/28 06:16:15;;;;;;;13.73;5.25;;;9.00;99.20;;;;;;5014344;28;20045;-68
2021/04/28 06:18:42;;;;;;;14.00;4.95;;;9.20;98.60;;;;;;4996537;28;20033;-69
2021/04/28 06:21:09;;;;;;;9.88;5.85;;;9.30;98.50;;;;;;5017613;28;20037;-68
2021/04/28 06:23:39;;;;;;;13.55;4.82;;;9.30;98.40;;;;;;5049631;28;20037;-68
2021/04/28 06:26:06;;;;;;;8.88;4.78;;;9.40;98.10;;;;;;5032586;28;20029;-68
2021/04/28 06:28:32;;;;;;;12.02;4.75;;;9.50;97.80;;;;;;5033977;28;20128;-68
2021/04/28 06:30:59;;;;;;;10.15;5.70;;;9.60;97.70;;;;;;5034009;28;20036;-69
2021/04/28 06:33:25;;;;;;;10.13;4.75;;;9.70;97.20;;;;;;5049195;28;20040;-68
2021/04/28 06:35:51;;;;;;;12.18;5.20;;;9.70;97.10;;;;;;5033954;28;20030;-69
2021/04/28 06:38:16;;;;;;;12.10;5.63;;;9.80;96.90;;;;;;5033613;28;20064;-68
2021/04/28 06:40:43;;;;;;;14.65;5.30;;;9.80;96.90;;;;;;5033725;28;20027;-68
2021/04/28 06:43:09;;;;;;;11.52;5.22;;;9.90;97.00;;;;;;5033508;28;20462;-69
2021/04/28 06:45:35;;;;;;;27.48;16.48;;;10.00;96.60;;;;;;5033715;28;20029;-68
2021/04/28 06:48:03;;;;;;;17.67;6.15;;;10.00;96.70;;;;;;5033624;28;20029;-68
2021/04/28 06:50:29;;;;;;;13.90;6.22;;;10.10;96.30;;;;;;5033180;28;20147;-68
2021/04/28 06:52:55;;;;;;;13.18;5.40;;;10.20;95.80;;;;;;5033535;28;20108;-68
2021/04/28 06:55:21;;;;;;;16.88;5.70;;;10.20;95.40;;;;;;5033507;28;20436;-68
2021/04/28 06:57:53;;;;;;;12.13;5.35;;;10.20;95.70;;;;;;5033237;28;20033;-68
2021/04/28 07:00:20;;;;;;;11.30;5.75;;;10.30;96.80;;;;;;5023036;28;20044;-67
2021/04/28 07:02:46;;;;;;;10.50;5.57;;;10.30;96.30;;;;;;5011918;28;20041;-68
2021/04/28 07:05:12;;;;;;;21.35;6.00;;;10.50;95.90;;;;;;5011857;28;20390;-68
2021/04/28 07:07:38;;;;;;;12.85;5.40;;;10.60;95.80;;;;;;5013498;28;20041;-68
2021/04/28 07:10:06;;;;;;;17.88;6.70;;;10.70;95.60;;;;;;5013576;28;20029;-67
2021/04/28 07:12:32;;;;;;;13.13;5.75;;;10.60;95.70;;;;;;5013399;28;20104;-68
2021/04/28 07:14:58;;;;;;;13.70;6.65;;;10.80;95.40;;;;;;4995490;28;20196;-68
2021/04/28 07:17:23;;;;;;;15.75;6.95;;;10.90;95.40;;;;;;5012926;28;20041;-68
2021/04/28 07:19:49;;;;;;;16.40;6.38;;;11.10;94.80;;;;;;5013066;28;20105;-68
2021/04/28 07:22:15;;;;;;;20.48;6.78;;;11.10;94.80;;;;;;5012130;28;20107;-67
2021/04/28 07:24:41;;;;;;;18.00;6.22;;;11.10;94.50;;;;;;5013317;28;20069;-68
2021/04/28 07:27:07;;;;;;;13.50;6.28;;;11.30;94.10;;;;;;5012996;28;20034;-68
2021/04/28 07:29:32;;;;;;;13.23;5.85;;;11.40;94.30;;;;;;5013098;28;20045;-67
2021/04/28 07:32:02;;;;;;;13.77;6.00;;;11.40;94.60;;;;;;5028225;28;20030;-68
2021/04/28 07:34:29;;;;;;;13.50;6.13;;;11.50;93.60;;;;;;5012947;28;20117;-68
2021/04/28 07:36:55;;;;;;;14.98;6.28;;;11.50;93.00;;;;;;5012651;28;20038;-68
2021/04/28 07:39:21;;;;;;;18.05;6.25;;;11.60;93.10;;;;;;5012636;28;20038;-68
2021/04/28 07:41:51;;;;;;;11.98;6.53;;;11.70;92.60;;;;;;5028169;28;20556;-68
2021/04/28 07:44:17;;;;;;;10.85;6.55;;;11.90;92.00;;;;;;5027670;28;20037;-68
2021/04/28 07:46:43;;;;;;;14.05;6.20;;;12.00;91.70;;;;;;5012902;28;20467;-68
2021/04/28 07:49:09;;;;;;;14.18;6.30;;;12.20;91.40;;;;;;5012839;28;20034;-68
2021/04/28 07:51:37;;;;;;;14.65;6.85;;;12.30;90.60;;;;;;5012754;28;20068;-67
2021/04/28 07:54:04;;;;;;;14.20;7.55;;;12.30;90.70;;;;;;5012448;28;20032;-68
2021/04/28 07:56:30;;;;;;;19.10;6.38;;;12.40;90.70;;;;;;5027741;28;20069;-68
2021/04/28 07:58:56;;;;;;;10.77;5.82;;;12.30;91.00;;;;;;5012381;28;20065;-68
2021/04/28 08:01:22;;;;;;;14.35;7.00;;;12.40;90.90;;;;;;5012586;28;20030;-67
2021/04/28 08:03:47;;;;;;;16.98;6.60;;;12.50;91.10;;;;;;5012620;28;20061;-67
2021/04/28 08:06:13;;;;;;;13.32;6.63;;;12.60;92.00;;;;;;5012706;28;20026;-67
2021/04/28 08:08:39;;;;;;;13.80;6.70;;;12.50;91.60;;;;;;5012628;28;20073;-67
2021/04/28 08:11:05;;;;;;;14.60;6.63;;;12.70;91.30;;;;;;5012613;28;20049;-66
2021/04/28 08:13:31;;;;;;;16.00;8.20;;;12.70;91.20;;;;;;4994554;28;20575;-68
2021/04/28 08:15:58;;;;;;;21.27;9.05;;;12.80;91.10;;;;;;5027773;28;20466;-68
2021/04/28 08:18:24;;;;;;;13.07;7.13;;;12.90;90.70;;;;;;5027467;28;20026;-68
2021/04/28 08:20:50;;;;;;;13.32;6.93;;;13.20;90.50;;;;;;5029037;28;20417;-67
2021/04/28 08:23:16;;;;;;;17.20;7.20;;;13.10;90.90;;;;;;5031821;28;20037;-67
2021/04/28 08:25:42;;;;;;;13.02;6.45;;;13.10;91.20;;;;;;5014268;28;20026;-68
2021/04/28 08:28:09;;;;;;;12.70;6.68;;;13.30;91.10;;;;;;5032145;28;20033;-67
2021/04/28 08:30:35;;;;;;;14.20;6.78;;;13.40;90.90;;;;;;5031881;28;20057;-68
2021/04/28 08:33:01;;;;;;;12.45;6.43;;;13.40;90.70;;;;;;5049068;28;20469;-67
2021/04/28 08:35:27;;;;;;;15.70;6.07;;;13.60;90.20;;;;;;5035811;28;20388;-68
2021/04/28 08:37:53;;;;;;;14.75;7.05;;;13.90;90.20;;;;;;5035949;28;20512;-67
2021/04/28 08:40:20;;;;;;;15.75;7.10;;;14.00;89.50;;;;;;5051176;28;20113;-68
2021/04/28 08:42:46;;;;;;;13.52;6.28;;;14.00;90.10;;;;;;5035800;28;20057;-68
2021/04/28 08:45:13;;;;;;;12.60;6.20;;;14.20;89.70;;;;;;5036039;28;20021;-68
2021/04/28 08:47:41;;;;;;;14.27;6.88;;;14.20;89.10;;;;;;5018177;28;20571;-68
2021/04/28 08:50:08;;;;;;;13.88;7.22;;;14.30;89.00;;;;;;5035550;28;20464;-68
2021/04/28 08:52:38;;;;;;;14.63;6.93;;;14.40;89.40;;;;;;5035616;28;20040;-69
2021/04/28 08:55:08;;;;;;;16.13;7.28;;;14.50;89.10;;;;;;5050965;28;20045;-68
2021/04/28 08:57:35;;;;;;;16.55;7.05;;;14.50;88.60;;;;;;5034878;28;20029;-69
2021/04/28 09:00:06;;;;;;;15.45;7.45;;;14.60;88.80;;;;;;5033691;28;20140;-69
2021/04/28 09:02:32;;;;;;;18.00;7.82;;;14.70;88.40;;;;;;5034521;28;20386;-68
2021/04/28 09:05:13;;;;;;;17.85;7.82;;;14.90;85.60;;;;;;5035644;28;20043;-68
2021/04/28 09:07:41;;;;;;;19.20;8.25;;;15.00;86.60;;;;;;5035416;28;20038;-69
2021/04/28 09:10:20;;;;;;;21.27;9.60;;;15.10;85.30;;;;;;5034005;28;20041;-68
2021/04/28 09:13:03;;;;;;;13.80;8.13;;;15.10;85.10;;;;;;5035354;28;20113;-69
2021/04/28 09:15:47;;;;;;;13.80;7.78;;;15.10;85.80;;;;;;5035444;28;20052;-69
2021/04/28 09:18:19;;;;;;;16.27;7.40;;;15.40;85.80;;;;;;5035062;28;20025;-68
2021/04/28 09:20:53;;;;;;;13.52;7.60;;;15.50;84.40;;;;;;5034703;28;20038;-67
2021/04/28 09:23:31;;;;;;;14.02;6.55;;;15.70;82.60;;;;;;5055210;28;20095;-69
2021/04/28 09:25:57;;;;;;;14.43;6.97;;;15.90;81.80;;;;;;5069924;28;20106;-69
2021/04/28 09:28:29;;;;;;;14.55;6.75;;;16.10;80.70;;;;;;5054974;28;20377;-68
2021/04/28 09:31:07;;;;;;;12.95;6.45;;;16.30;81.00;;;;;;5055115;28;20033;-69
2021/04/28 09:33:55;;;;;;;15.27;7.75;;;16.40;79.40;;;;;;5054903;28;20033;-69
2021/04/28 09:36:31;;;;;;;16.65;8.18;;;16.70;79.10;;;;;;5054632;28;20038;-68
2021/04/28 09:39:08;;;;;;;14.52;8.07;;;16.80;75.40;;;;;;5055193;28;20033;-69
2021/04/28 09:41:45;;;;;;;17.00;8.80;;;16.90;74.20;;;;;;5054837;28;20033;-70
2021/04/28 09:44:20;;;;;;;15.88;8.43;;;16.80;74.00;;;;;;5054055;28;20086;-70
2021/04/28 09:47:06;;;;;;;18.85;8.73;;;16.90;71.20;;;;;;5036533;28;20068;-69
2021/04/28 09:50:02;;;;;;;17.35;7.70;;;17.10;71.30;;;;;;5054538;28;20053;-69
2021/04/28 09:52:30;;;;;;;14.57;8.00;;;17.20;67.90;;;;;;5036710;28;20048;-69
2021/04/28 09:55:12;;;;;;;16.20;8.70;;;17.20;69.00;;;;;;5054467;28;20069;-69
2021/04/28 09:57:47;;;;;;;20.73;9.27;;;17.20;69.40;;;;;;5054451;28;20025;-68
2021/04/28 10:00:22;;;;;;;16.42;7.97;;;17.40;69.50;;;;;;5048374;28;20065;-71
2021/04/28 10:02:53;;;;;;;22.77;8.40;;;17.40;68.60;;;;;;5036348;28;20033;-71
2021/04/28 10:05:30;;;;;;;15.60;8.43;;;17.40;71.30;;;;;;5054534;28;20112;-69
2021/04/28 10:08:19;;;;;;;18.77;8.82;;;17.70;71.00;;;;;;5054411;28;20029;-68
2021/04/28 10:10:48;;;;;;;19.42;8.57;;;18.10;69.00;;;;;;5054253;28;20037;-69
2021/04/28 10:13:15;;;;;;;23.40;8.48;;;18.10;68.50;;;;;;5053972;28;20095;-69
2021/04/28 10:15:45;;;;;;;16.30;8.27;;;18.20;65.30;;;;;;5069217;28;20091;-69
2021/04/28 10:18:14;;;;;;;16.70;7.90;;;18.20;65.90;;;;;;5008020;28;20487;-69
2021/04/28 10:20:45;;;;;;;15.23;8.27;;;18.20;68.30;;;;;;5053758;28;20108;-67
2021/04/28 10:23:14;;;;;;;16.88;9.05;;;18.40;67.60;;;;;;5054261;28;20520;-69
2021/04/28 10:25:41;;;;;;;16.65;8.88;;;18.30;67.30;;;;;;5052933;28;20393;-69
2021/04/28 10:28:11;;;;;;;18.02;9.23;;;18.40;65.80;;;;;;5054041;28;20036;-69
2021/04/28 10:30:48;;;;;;;15.93;8.27;;;18.80;64.40;;;;;;5053916;28;20032;-70
2021/04/28 10:33:22;;;;;;;22.52;8.88;;;18.80;64.40;;;;;;5052351;28;20107;-69
2021/04/28 10:35:50;;;;;;;20.70;9.40;;;18.80;63.60;;;;;;5053563;28;20037;-69
2021/04/28 10:38:27;;;;;;;18.80;9.23;;;18.60;62.80;;;;;;5053888;28;20075;-70
2021/04/28 10:40:55;;;;;;;19.13;8.48;;;18.70;63.60;;;;;;5053572;28;20024;-70
2021/04/28 10:43:37;;;;;;;17.50;9.50;;;18.90;62.50;;;;;;5053857;28;20032;-72
2021/04/28 10:46:22;;;;;;;16.00;8.52;;;19.20;62.10;;;;;;5053412;28;20661;-69
2021/04/28 10:48:47;;;;;;;19.38;7.50;;;19.10;61.80;;;;;;5053596;28;20041;-69
2021/04/28 10:51:39;;;;;;;16.17;8.57;;;19.40;62.40;;;;;;5053558;28;20021;-70
2021/04/28 10:54:21;;;;;;;;;;;19.90;61.80;;;;;;5053921;28;20037;-71
2021/04/28 10:57:07;;;;;;;15.90;8.23;;;19.80;60.70;;;;;;5051991;28;19920;-69
2021/04/28 10:59:42;;;;;;;15.38;8.00;;;20.20;59.20;;;;;;5053310;28;20147;-70
2021/04/28 11:02:14;;;;;;;15.00;8.10;;;20.40;53.90;;;;;;5053290;28;20044;-70
2021/04/28 11:04:46;;;;;;;15.20;8.68;;;20.40;53.90;;;;;;5053029;28;20028;-70
2021/04/28 11:07:14;;;;;;;17.80;9.63;;;20.30;55.30;;;;;;5053322;28;20048;-70
2021/04/28 11:09:40;;;;;;;17.30;8.40;;;20.10;55.20;;;;;;5053003;28;20025;-69
2021/04/28 11:12:06;;;;;;;17.48;8.30;;;20.50;54.40;;;;;;5051909;28;20036;-70
2021/04/28 11:14:34;;;;;;;17.98;9.10;;;21.00;53.30;;;;;;5034901;28;20040;-70
2021/04/28 11:17:15;;;;;;;16.38;8.85;;;21.10;52.60;;;;;;5034633;28;20481;-69
2021/04/28 11:19:42;;;;;;;;;;;21.00;55.20;;;;;;5053336;28;20114;-70
2021/04/28 11:22:22;;;;;;;17.83;9.45;;;20.80;55.20;;;;;;5051364;28;19970;-70
2021/04/28 11:25:11;;;;;;;15.20;7.60;;;21.00;55.60;;;;;;5052703;28;20036;-71
2021/04/28 11:28:07;;;;;;;15.23;8.65;;;21.30;50.20;;;;;;5053018;28;20041;-69
2021/04/28 11:30:43;;;;;;;14.63;8.07;;;21.50;49.20;;;;;;5052774;28;20066;-70
2021/04/28 11:33:16;;;;;;;15.80;8.63;;;21.50;50.10;;;;;;5052785;28;20037;-70
2021/04/28 11:35:52;;;;;;;14.43;8.00;;;21.30;48.10;;;;;;5052736;28;20033;-70
2021/04/28 11:38:22;;;;;;;11.52;7.43;;;21.60;46.90;;;;;;5052540;28;20389;-70
2021/04/28 11:41:03;;;;;;;16.35;8.80;;;21.70;46.40;;;;;;5052616;28;20124;-70
2021/04/28 11:43:36;;;;;;;12.07;6.75;;;21.60;46.90;;;;;;5052835;28;20098;-69
2021/04/28 11:46:09;;;;;;;12.00;6.65;;;21.90;44.10;;;;;;5052434;28;20025;-69
2021/04/28 11:48:37;;;;;;;17.83;8.32;;;22.00;45.20;;;;;;5034604;28;20032;-69
2021/04/28 11:51:09;;;;;;;13.23;7.18;;;22.30;44.60;;;;;;5052149;28;20041;-70
2021/04/28 11:53:49;;;;;;;11.02;6.05;;;22.20;43.00;;;;;;5052170;28;20029;-69
2021/04/28 11:56:38;;;;;;;;;;;22.70;44.10;;;;;;5052607;28;20044;-68
2021/04/28 11:59:06;;;;;;;13.90;6.80;;;22.30;45.20;;;;;;5029564;28;19933;-70
2021/04/28 12:01:35;;;;;;;11.88;6.45;;;22.60;43.10;;;;;;5051694;28;20033;-69
2021/04/28 12:04:07;;;;;;;10.60;6.78;;;21.70;43.00;;;;;;5052270;28;20473;-70
2021/04/28 12:06:45;;;;;;;10.25;6.15;;;21.80;44.20;;;;;;5051757;28;20039;-71
2021/04/28 12:09:39;;;;;;;11.07;6.35;;;21.80;44.60;;;;;;5052367;28;20047;-71
2021/04/28 12:12:24;;;;;;;12.02;5.95;;;22.40;42.10;;;;;;5052265;28;20033;-70
2021/04/28 12:14:55;;;;;;;12.75;5.97;;;22.90;42.30;;;;;;5052087;28;20427;-70
2021/04/28 12:17:28;;;;;;;11.15;6.03;;;22.90;42.00;;;;;;5051841;28;20035;-70
2021/04/28 12:19:55;;;;;;;14.93;6.38;;;22.90;41.80;;;;;;5052052;28;20044;-70
2021/04/28 12:22:29;;;;;;;8.27;5.13;;;22.80;42.00;;;;;;5050516;28;20592;-70
2021/04/28 12:24:57;;;;;;;11.15;6.43;;;23.10;41.60;;;;;;5051969;28;20540;-70
2021/04/28 12:27:24;;;;;;;11.75;5.97;;;23.50;41.70;;;;;;5051961;28;20171;-71
2021/04/28 12:30:04;;;;;;;9.73;5.22;;;24.20;40.70;;;;;;5051609;28;20069;-70
2021/04/28 12:32:36;;;;;;;8.87;5.40;;;24.10;40.40;;;;;;5051993;28;20044;-71
2021/04/28 12:35:18;;;;;;;9.65;5.97;;;23.70;41.10;;;;;;5051998;28;20771;-69
2021/04/28 12:38:12;;;;;;;8.10;4.95;;;23.00;40.70;;;;;;5051828;28;20049;-70
2021/04/28 12:40:45;;;;;;;11.70;4.68;;;23.40;41.50;;;;;;5033967;28;20170;-70
2021/04/28 12:43:18;;;;;;;8.02;5.00;;;23.60;41.20;;;;;;5051939;28;20037;-69
2021/04/28 12:45:44;;;;;;;9.18;5.07;;;24.20;41.60;;;;;;5051916;28;20041;-69
2021/04/28 12:48:17;;;;;;;12.40;5.10;;;24.10;40.30;;;;;;5050515;28;20032;-70
2021/04/28 12:50:49;;;;;;;12.15;5.57;;;24.40;42.00;;;;;;5050330;28;20033;-70
2021/04/28 12:53:23;;;;;;;11.02;5.47;;;24.40;40.10;;;;;;5051560;28;20040;-71
2021/04/28 12:55:56;;;;;;;10.82;5.20;;;23.80;40.40;;;;;;5051674;28;20119;-69
2021/04/28 12:58:24;;;;;;;11.65;5.07;;;23.30;40.60;;;;;;5050450;28;20478;-70
2021/04/28 13:00:51;;;;;;;10.32;5.50;;;24.40;40.60;;;;;;5050125;28;20045;-69